TimeEDT,TemperatureF,Dew PointF,Humidity,Sea Level PressureIn,VisibilityMPH,Wind Direction,Wind SpeedMPH,Gust SpeedMPH,PrecipitationIn,Events,Conditions,WindDirDegrees,DateUTC
12:15 AM,33.8,30.2,87,29.61,4.0,Calm,Calm,-,N/A,,Overcast,0,2013-03-25 04:15:00
12:35 AM,33.8,30.2,87,29.61,1.8,Calm,Calm,-,N/A,,Drizzle,0,2013-03-25 04:35:00
12:55 AM,33.8,30.2,87,29.58,1.8,ENE,3.5,-,N/A,,Drizzle,60,2013-03-25 04:55:00
1:15 AM,33.8,30.2,87,29.58,2.0,Calm,Calm,-,N/A,,Light Drizzle,0,2013-03-25 05:15:00
1:35 AM,33.8,30.2,87,29.57,2.0,Calm,Calm,-,N/A,Rain,Light Rain,0,2013-03-25 05:35:00
1:55 AM,33.8,30.2,87,29.55,1.8,Calm,Calm,-,N/A,,Drizzle,0,2013-03-25 05:55:00
2:15 AM,33.8,32.0,93,29.56,2.5,Calm,Calm,-,N/A,,Light Drizzle,0,2013-03-25 06:15:00
2:35 AM,33.8,32.0,93,29.57,2.5,Calm,Calm,-,N/A,Snow,Light Snow,0,2013-03-25 06:35:00
3:15 AM,33.8,32.0,93,29.58,0.8,WNW,3.5,-,N/A,Rain,Rain,300,2013-03-25 07:15:00
3:35 AM,33.8,32.0,93,29.57,1.0,Calm,Calm,-,N/A,Snow,Snow,0,2013-03-25 07:35:00
3:55 AM,33.8,32.0,93,29.57,1.5,Calm,Calm,-,N/A,Snow,Light Snow,0,2013-03-25 07:55:00
4:15 AM,33.8,32.0,93,29.56,1.5,Calm,Calm,-,N/A,,Overcast,0,2013-03-25 08:15:00
4:35 AM,33.8,30.2,87,29.55,1.5,Calm,Calm,-,N/A,,Overcast,0,2013-03-25 08:35:00
4:55 AM,33.8,30.2,87,29.54,1.8,NW,3.5,-,N/A,,Overcast,320,2013-03-25 08:55:00
5:15 AM,33.8,30.2,87,29.53,2.5,North,3.5,-,N/A,Snow,Light Snow,360,2013-03-25 09:15:00
5:35 AM,33.8,30.2,87,29.53,4.0,Calm,Calm,-,N/A,Snow,Light Snow,0,2013-03-25 09:35:00
5:55 AM,33.8,30.2,87,29.53,5.0,Calm,Calm,-,N/A,Snow,Light Snow,0,2013-03-25 09:55:00
6:15 AM,33.8,30.2,87,29.53,2.5,Calm,Calm,-,N/A,Snow,Light Snow,0,2013-03-25 10:15:00
6:35 AM,33.8,30.2,87,29.52,3.0,Calm,Calm,-,N/A,Snow,Light Snow,0,2013-03-25 10:35:00
6:55 AM,33.8,30.2,87,29.52,3.0,Calm,Calm,-,N/A,Snow,Light Snow,0,2013-03-25 10:55:00
7:15 AM,33.8,30.2,87,29.52,4.0,Calm,Calm,-,N/A,Snow,Light Snow,0,2013-03-25 11:15:00
7:35 AM,33.8,30.2,87,29.51,4.0,Calm,Calm,-,N/A,Rain,Rain,0,2013-03-25 11:35:00
7:55 AM,33.8,30.2,87,29.51,3.0,Calm,Calm,-,N/A,Rain,Light Rain,0,2013-03-25 11:55:00
8:15 AM,33.8,30.2,87,29.51,2.0,Calm,Calm,-,N/A,Snow,Light Snow,0,2013-03-25 12:15:00
8:35 AM,33.8,30.2,87,29.51,4.0,Calm,Calm,-,N/A,Rain,Light Rain,0,2013-03-25 12:35:00
8:55 AM,33.8,30.2,87,29.51,4.0,Calm,Calm,-,N/A,Rain,Light Rain,0,2013-03-25 12:55:00
9:15 AM,33.8,30.2,87,29.52,7.0,Calm,Calm,-,N/A,,Overcast,0,2013-03-25 13:15:00
9:35 AM,33.8,30.2,87,29.52,10.0,Calm,Calm,-,N/A,,Overcast,0,2013-03-25 13:35:00
9:55 AM,33.8,30.2,87,29.52,10.0,Calm,Calm,-,N/A,,Overcast,0,2013-03-25 13:55:00
10:15 AM,35.6,32.0,87,29.53,10.0,Calm,Calm,-,N/A,,Overcast,0,2013-03-25 14:15:00
10:35 AM,33.8,30.2,87,29.53,10.0,North,-9999.0,-,N/A,,Overcast,0,2013-03-25 14:35:00
10:55 AM,-9999,-9999,N/A,29.53,-9999.0,North,-9999.0,-,N/A,,Unknown,0,2013-03-25 14:55:00
11:15 AM,-9999,-9999,N/A,29.53,-9999.0,West,3.5,-,0.01,,Unknown,280,2013-03-25 15:15:00
11:35 AM,35.6,30.2,81,29.53,7.0,West,3.5,-,0.08,Snow,Light Snow,280,2013-03-25 15:35:00
11:55 AM,35.6,32.0,87,29.53,2.5,WNW,3.5,-,0.12,Snow,Light Snow,290,2013-03-25 15:55:00
12:15 PM,35.6,32.0,87,29.53,1.8,West,3.5,-,0.04,,Overcast,280,2013-03-25 16:15:00
12:35 PM,35.6,33.8,93,29.53,5.0,WNW,4.6,-,0.08,,Overcast,290,2013-03-25 16:35:00
12:55 PM,35.6,32.0,87,29.53,10.0,West,4.6,-,0.13,Rain,Light Rain,280,2013-03-25 16:55:00
1:15 PM,35.6,32.0,87,29.53,10.0,West,3.5,-,0.04,Snow,Light Snow,270,2013-03-25 17:15:00
1:35 PM,35.6,32.0,87,29.53,10.0,West,4.6,-,0.08,Rain,Light Rain,270,2013-03-25 17:35:00
1:55 PM,37.4,33.8,87,29.53,10.0,West,4.6,-,0.12,Rain,Light Rain,260,2013-03-25 17:55:00
2:15 PM,35.6,33.8,93,29.53,10.0,West,5.8,-,0.04,Rain,Light Rain,270,2013-03-25 18:15:00
2:35 PM,35.6,33.8,93,29.52,10.0,West,6.9,-,0.07,,Light Drizzle,260,2013-03-25 18:35:00
2:55 PM,35.6,33.8,93,29.53,10.0,West,5.8,-,0.10,,Light Drizzle,260,2013-03-25 18:55:00
3:15 PM,35.6,33.8,93,29.53,10.0,WSW,3.5,-,0.02,Rain,Light Rain,250,2013-03-25 19:15:00
3:35 PM,35.6,33.8,93,29.54,4.0,Calm,Calm,-,0.05,Snow,Light Snow,0,2013-03-25 19:35:00
3:55 PM,35.6,33.8,93,29.54,3.0,WSW,3.5,-,0.07,Snow,Light Snow,250,2013-03-25 19:55:00
4:15 PM,35.6,32.0,87,29.55,1.8,West,3.5,-,0.03,,Overcast,260,2013-03-25 20:15:00
4:35 PM,35.6,33.8,93,29.56,4.0,West,4.6,-,0.05,Rain,Light Rain,260,2013-03-25 20:35:00
4:55 PM,35.6,33.8,93,29.56,10.0,West,4.6,-,0.07,Rain,Light Rain,270,2013-03-25 20:55:00
5:15 PM,37.4,33.8,87,29.57,10.0,West,4.6,-,0.02,,Light Drizzle,270,2013-03-25 21:15:00
5:35 PM,37.4,33.8,87,29.57,7.0,West,5.8,-,0.03,,Light Drizzle,260,2013-03-25 21:35:00
5:55 PM,37.4,33.8,87,29.58,10.0,West,4.6,-,0.04,,Light Drizzle,270,2013-03-25 21:55:00
6:15 PM,37.4,33.8,87,29.59,10.0,WNW,3.5,-,0.01,,Light Drizzle,300,2013-03-25 22:15:00
6:35 PM,37.4,33.8,87,29.59,10.0,Calm,Calm,-,0.01,,Overcast,0,2013-03-25 22:35:00
6:55 PM,37.4,35.6,93,29.60,10.0,West,3.5,-,0.01,,Overcast,270,2013-03-25 22:55:00
7:15 PM,37.4,35.6,93,29.61,10.0,Calm,Calm,-,N/A,,Overcast,0,2013-03-25 23:15:00
7:35 PM,37.4,35.6,93,29.62,10.0,Calm,Calm,-,N/A,,Overcast,0,2013-03-25 23:35:00
7:55 PM,35.6,35.6,100,29.63,4.0,Calm,Calm,-,N/A,,Overcast,0,2013-03-25 23:55:00
8:15 PM,35.6,33.8,93,29.64,2.5,Calm,Calm,-,N/A,,Overcast,0,2013-03-26 00:15:00
8:35 PM,35.6,33.8,93,29.65,7.0,Calm,Calm,-,N/A,,Overcast,0,2013-03-26 00:35:00
8:55 PM,35.6,33.8,93,29.65,10.0,Calm,Calm,-,N/A,,Overcast,0,2013-03-26 00:55:00
9:15 PM,35.6,33.8,93,29.66,10.0,Calm,Calm,-,N/A,,Overcast,0,2013-03-26 01:15:00
9:35 PM,35.6,33.8,93,29.67,5.0,Calm,Calm,-,N/A,,Overcast,0,2013-03-26 01:35:00
9:55 PM,33.8,32.0,93,29.67,5.0,Calm,Calm,-,N/A,,Overcast,0,2013-03-26 01:55:00
10:15 PM,33.8,32.0,93,29.68,3.0,WSW,3.5,-,N/A,,Overcast,250,2013-03-26 02:15:00
10:35 PM,33.8,32.0,93,29.68,5.0,Calm,Calm,-,N/A,,Overcast,0,2013-03-26 02:35:00
10:55 PM,33.8,30.2,87,29.68,7.0,West,3.5,-,N/A,,Mostly Cloudy,260,2013-03-26 02:55:00
11:15 PM,32.0,30.2,93,29.69,7.0,WSW,3.5,-,N/A,,Scattered Clouds,250,2013-03-26 03:15:00
11:35 PM,33.8,30.2,87,29.69,7.0,West,3.5,-,N/A,,Clear,260,2013-03-26 03:35:00
11:55 PM,33.8,30.2,87,29.70,10.0,West,4.6,-,N/A,,Clear,270,2013-03-26 03:55:00